Aviation Digital Data Service (ADDS)

Output produced by TAFs form (1330 UTC 25 September 2017)
found at http://www.aviationweather.gov/adds/tafs/
 
METAR text: RJOW 251000Z 06003KT 9999 FEW050 SCT/// 22/19 Q1014
Conditions at: RJOW (IWAMI , JP) observed 1000 UTC 25 September 2017
Temperature: 22.0°C (72°F)
Dewpoint: 19.0°C (66°F) [RH = 83%]
Pressure (altimeter): 29.94 inches Hg (1014.0 mb)
Winds: from the ENE (60 degrees) at 3 MPH (3 knots; 1.6 m/s)
Visibility: 6 or more miles (10+ km)
Ceiling: at least 12,000 feet AGL
Clouds: few clouds at 5000 feet AGL
Weather: no significant weather observed at this time